Time;durP1;ratioP1;P1;durP2;ratioP2;P2;SDS_P1;SDS_P2;PMS_P1;PMS_P2;Temp;Humidity;BMP_temperature;BMP_pressure;BME280_temperature;BME280_humidity;BME280_pressure;Samples;Min_cycle;Max_cycle;Signal;HPM_P1;HPM_P2
2019/12/19 00:00:14;;;;;;;20.2;7.8;;;;;;;5.73;75.88965;962.7352;;;;
2019/12/19 00:02:39;;;;;;;19.6;7.5;;;;;;;5.77;75.8125;962.6375;;;;
2019/12/19 00:05:04;;;;;;;23.6;7.9;;;;;;;5.81;75.80859;962.6469;;;;
2019/12/19 00:07:29;;;;;;;22.5;8.6;;;;;;;5.79;76.29297;962.6105;;;;
2019/12/19 00:09:54;;;;;;;17.1;7.2;;;;;;;5.62;75.71875;962.5355;;;;
2019/12/19 00:12:19;;;;;;;18.4;7.3;;;;;;;5.54;76.31836;962.4706;;;;
2019/12/19 00:14:45;;;;;;;20;7.5;;;;;;;5.47;76.37402;962.4283;;;;
2019/12/19 00:17:17;;;;;;;17.2;7.2;;;;;;;5.43;76.46973;962.3994;;;;
2019/12/19 00:19:35;;;;;;;17.3;7.5;;;;;;;5.47;77.43945;962.3483;;;;
2019/12/19 00:22:00;;;;;;;18.1;7.4;;;;;;;5.51;76.46094;962.3005;;;;
2019/12/19 00:24:25;;;;;;;18.9;8;;;;;;;5.56;75.60156;962.264;;;;
2019/12/19 00:26:50;;;;;;;18.6;7.5;;;;;;;5.56;74.9541;962.2759;;;;
2019/12/19 00:29:15;;;;;;;17.2;7.8;;;;;;;5.65;75.46777;962.218;;;;
2019/12/19 00:31:40;;;;;;;16.7;7.2;;;;;;;5.62;75.66016;962.1934;;;;
2019/12/19 00:34:05;;;;;;;22.1;7.7;;;;;;;5.6;75.91113;962.1702;;;;
2019/12/19 00:36:30;;;;;;;19;7.2;;;;;;;5.54;77.60449;962.152;;;;
2019/12/19 00:38:56;;;;;;;17.6;7.1;;;;;;;5.57;77.59766;962.1337;;;;
2019/12/19 00:41:20;;;;;;;20.6;7.3;;;;;;;5.51;78.23535;962.1189;;;;
2019/12/19 00:43:46;;;;;;;22.6;6.6;;;;;;;5.58;77.65527;962.0793;;;;
2019/12/19 00:46:11;;;;;;;21;7.1;;;;;;;5.51;77.94727;962.1313;;;;
2019/12/19 00:48:36;;;;;;;18.4;7.1;;;;;;;5.61;77.65039;962.0681;;;;
2019/12/19 00:51:01;;;;;;;18.6;6.7;;;;;;;5.59;77.49609;962.0719;;;;
2019/12/19 00:53:26;;;;;;;15.6;6.5;;;;;;;5.6;76.47852;962.0072;;;;
2019/12/19 00:55:51;;;;;;;17.5;6.3;;;;;;;5.48;75.94824;962.0062;;;;
2019/12/19 00:58:17;;;;;;;15.8;6.1;;;;;;;5.48;75.93555;961.9281;;;;
2019/12/19 01:00:50;;;;;;;15.2;6.1;;;;;;;5.43;76.14551;961.8993;;;;
2019/12/19 01:03:22;;;;;;;17.3;6.3;;;;;;;5.47;76.39648;961.9336;;;;
2019/12/19 01:05:45;;;;;;;18.5;6.5;;;;;;;5.48;76.20313;961.9375;;;;
2019/12/19 01:07:58;;;;;;;15.8;6.7;;;;;;;5.41;75.37988;961.9208;;;;
2019/12/19 01:12:47;;;;;;;14.2;6;;;;;;;5.33;76.5918;961.9214;;;;
2019/12/19 01:15:13;;;;;;;17;6.8;;;;;;;5.32;76.19629;961.8769;;;;
2019/12/19 01:17:38;;;;;;;16.1;6.7;;;;;;;5.32;76.15137;961.8667;;;;
2019/12/19 01:20:03;;;;;;;17.6;6.3;;;;;;;5.28;75.87793;961.8633;;;;
2019/12/19 01:22:28;;;;;;;21.2;6.7;;;;;;;5.34;76.38477;961.8235;;;;
2019/12/19 01:24:53;;;;;;;15.2;6.5;;;;;;;5.31;76.30078;961.8771;;;;
2019/12/19 01:27:18;;;;;;;19.4;6.5;;;;;;;5.32;76.18652;961.8486;;;;
2019/12/19 01:29:44;;;;;;;19;6.4;;;;;;;5.32;75.43359;961.8683;;;;
2019/12/19 01:32:09;;;;;;;19;7.2;;;;;;;5.38;76.16113;961.8878;;;;
2019/12/19 01:34:34;;;;;;;17;6.5;;;;;;;5.27;77.19629;961.8967;;;;
2019/12/19 01:36:59;;;;;;;16.4;6.7;;;;;;;5.23;78.05469;961.8933;;;;
2019/12/19 01:39:24;;;;;;;17;6.2;;;;;;;5.18;78.36035;961.8847;;;;
2019/12/19 01:41:49;;;;;;;18.7;6.3;;;;;;;5.22;78.19336;961.8825;;;;
2019/12/19 01:44:15;;;;;;;16.1;6.7;;;;;;;5.25;77.8623;961.8903;;;;
2019/12/19 01:46:50;;;;;;;17;6.2;;;;;;;5.2;77.75;961.8711;;;;
2019/12/19 01:51:34;;;;;;;17;6.3;;;;;;;5.15;78.07617;961.8459;;;;
2019/12/19 01:53:55;;;;;;;19.8;6.8;;;;;;;5.19;77.92188;961.8683;;;;
2019/12/19 01:56:20;;;;;;;14.9;6.4;;;;;;;5.19;77.87598;961.8136;;;;
2019/12/19 01:58:45;;;;;;;13.5;6;;;;;;;5.19;77.50586;961.7417;;;;
2019/12/19 02:01:10;;;;;;;17;6;;;;;;;5.16;77.02441;961.7036;;;;
2019/12/19 02:03:35;;;;;;;16.1;6.1;;;;;;;5.2;76.52148;961.7084;;;;
2019/12/19 02:06:01;;;;;;;14.1;6.5;;;;;;;5.05;77.24902;961.6724;;;;
2019/12/19 02:08:26;;;;;;;16.3;7;;;;;;;5.18;76.87695;961.6665;;;;
2019/12/19 02:10:51;;;;;;;15.7;6.1;;;;;;;5.19;76.73047;961.6384;;;;
2019/12/19 02:13:16;;;;;;;14.8;6.1;;;;;;;5.06;76.83398;961.5645;;;;
2019/12/19 02:15:41;;;;;;;14.6;6;;;;;;;5.06;77.34277;961.563;;;;
2019/12/19 02:18:06;;;;;;;15.3;6.2;;;;;;;4.97;78.04395;961.51;;;;
2019/12/19 02:20:32;;;;;;;16.2;5.9;;;;;;;4.86;78.83301;961.5314;;;;
2019/12/19 02:22:57;;;;;;;16.5;6;;;;;;;4.94;78.18848;961.4623;;;;
2019/12/19 02:25:22;;;;;;;18.3;6.2;;;;;;;4.96;77.76465;961.45;;;;
2019/12/19 02:27:47;;;;;;;12.2;6;;;;;;;5.04;77.94141;961.4213;;;;
2019/12/19 02:30:12;;;;;;;17.6;6.9;;;;;;;5.13;76.92773;961.4117;;;;
2019/12/19 02:32:37;;;;;;;13.6;6.2;;;;;;;5.09;76.82715;961.383;;;;
2019/12/19 02:35:02;;;;;;;14.3;6.1;;;;;;;4.97;76.46875;961.3964;;;;
2019/12/19 02:37:27;;;;;;;13.2;5.9;;;;;;;4.95;76.37305;961.3505;;;;
2019/12/19 02:39:52;;;;;;;12.2;5.8;;;;;;;4.93;77.04102;961.3267;;;;
2019/12/19 02:42:17;;;;;;;13.5;5.8;;;;;;;4.91;76.83008;961.2609;;;;
2019/12/19 02:44:43;;;;;;;14.2;5.8;;;;;;;4.85;76.26367;961.2352;;;;
2019/12/19 02:47:08;;;;;;;13.4;5.9;;;;;;;4.87;75.91992;961.2191;;;;
2019/12/19 02:49:33;;;;;;;11.2;5.6;;;;;;;4.81;75.78125;961.1685;;;;
2019/12/19 02:51:58;;;;;;;14.7;5.9;;;;;;;4.8;75.66602;961.1792;;;;
2019/12/19 02:54:23;;;;;;;11.4;5.9;;;;;;;4.8;75.81641;961.159;;;;
2019/12/19 02:56:54;;;;;;;13.5;6.1;;;;;;;4.77;76.41309;961.1153;;;;
2019/12/19 02:59:13;;;;;;;12.6;5.6;;;;;;;4.82;76.87207;961.1543;;;;
2019/12/19 03:01:45;;;;;;;14.1;6;;;;;;;4.74;77.49316;961.1451;;;;
2019/12/19 03:04:04;;;;;;;14;6.1;;;;;;;4.73;78.19727;961.1381;;;;
2019/12/19 03:06:28;;;;;;;12.8;5.9;;;;;;;4.7;77.11523;961.1331;;;;
2019/12/19 03:08:54;;;;;;;13.3;5.4;;;;;;;4.69;76.30469;961.132;;;;
2019/12/19 03:11:19;;;;;;;14.6;5.8;;;;;;;4.72;75.95117;961.1658;;;;
2019/12/19 03:13:44;;;;;;;11.1;5.3;;;;;;;4.71;75.8457;961.2012;;;;
2019/12/19 03:16:54;;;;;;;13.5;5.5;;;;;;;4.69;75.49512;961.2028;;;;
2019/12/19 03:18:34;;;;;;;13.6;5.5;;;;;;;4.6;75.68652;961.2015;;;;
2019/12/19 03:21:00;;;;;;;14.9;6;;;;;;;4.67;75.52539;961.2008;;;;
2019/12/19 03:23:25;;;;;;;12.5;6.1;;;;;;;4.6;76.32324;961.1852;;;;
2019/12/19 03:25:50;;;;;;;13;5.8;;;;;;;4.53;76.79492;961.247;;;;
2019/12/19 03:28:15;;;;;;;15.8;5.9;;;;;;;4.48;77.81348;961.2946;;;;
2019/12/19 03:30:40;;;;;;;14.1;5.8;;;;;;;4.51;77.56445;961.3127;;;;
2019/12/19 03:33:05;;;;;;;14.3;5.7;;;;;;;4.57;77.46289;961.2942;;;;
2019/12/19 03:35:30;;;;;;;11.4;5.9;;;;;;;4.54;78.12695;961.2724;;;;
2019/12/19 03:37:55;;;;;;;11.2;5.4;;;;;;;4.6;77.79199;961.2642;;;;
2019/12/19 03:40:20;;;;;;;12.3;6.2;;;;;;;4.58;76.7832;961.2836;;;;
2019/12/19 03:42:46;;;;;;;11.3;5.6;;;;;;;4.55;77.13477;961.1964;;;;
2019/12/19 03:45:13;;;;;;;12.4;5.6;;;;;;;4.5;76.6748;961.1509;;;;
2019/12/19 03:47:36;;;;;;;12.4;5.6;;;;;;;4.6;76.57813;961.0999;;;;
2019/12/19 03:50:04;;;;;;;14.2;5.7;;;;;;;4.57;76.51367;961.1389;;;;
2019/12/19 03:52:29;;;;;;;13.3;6.2;;;;;;;4.61;76.38281;961.1404;;;;
2019/12/19 03:55:04;;;;;;;12.8;6.1;;;;;;;4.55;76.6377;961.1061;;;;
2019/12/19 03:57:20;;;;;;;14.5;5.9;;;;;;;4.51;76.65332;961.0347;;;;
2019/12/19 03:59:44;;;;;;;15.9;5.9;;;;;;;4.48;76.32324;961.0941;;;;
2019/12/19 04:02:26;;;;;;;13;6.1;;;;;;;4.52;76.34277;961.0811;;;;
2019/12/19 04:04:51;;;;;;;14.3;5.9;;;;;;;4.46;76.19434;961.1092;;;;
2019/12/19 04:07:16;;;;;;;12.3;5.9;;;;;;;4.33;75.90527;961.1039;;;;
2019/12/19 04:09:41;;;;;;;13.2;5.9;;;;;;;4.27;75.73242;961.079;;;;
2019/12/19 04:12:06;;;;;;;10.4;5.5;;;;;;;4.24;75.92285;961.1506;;;;
2019/12/19 04:14:32;;;;;;;13.2;5.6;;;;;;;4.23;75.74805;961.1469;;;;
2019/12/19 04:16:57;;;;;;;12.9;5.7;;;;;;;4.26;76.0293;961.1008;;;;
2019/12/19 04:19:22;;;;;;;14.4;6.3;;;;;;;4.18;76.57129;961.0881;;;;
2019/12/19 04:21:47;;;;;;;13.5;6.6;;;;;;;4.09;76.71582;961.0411;;;;
2019/12/19 04:24:12;;;;;;;13.8;5.8;;;;;;;4.16;76.08203;960.9891;;;;
2019/12/19 04:26:37;;;;;;;14.1;5.4;;;;;;;4.13;76.07813;960.9306;;;;
2019/12/19 04:29:02;;;;;;;13.3;5.7;;;;;;;4.14;76.45996;960.8572;;;;
2019/12/19 04:31:27;;;;;;;11.8;6.1;;;;;;;4.13;75.89258;960.8495;;;;
2019/12/19 04:33:52;;;;;;;11.9;6;;;;;;;4.1;76.02637;960.8733;;;;
2019/12/19 04:36:17;;;;;;;15.3;7.2;;;;;;;4.23;76.00391;960.9092;;;;
2019/12/19 04:38:42;;;;;;;17.1;7.2;;;;;;;4.24;76.69629;960.9719;;;;
2019/12/19 04:41:07;;;;;;;15.7;6.5;;;;;;;4.06;77.53027;961.0006;;;;
2019/12/19 04:43:33;;;;;;;18.5;6.4;;;;;;;4.07;78.04004;960.9294;;;;
2019/12/19 04:45:58;;;;;;;16;7;;;;;;;4.12;77.48242;960.8918;;;;
2019/12/19 04:48:23;;;;;;;16.1;6.8;;;;;;;4.07;77.09375;960.928;;;;
2019/12/19 04:50:48;;;;;;;16.6;7.1;;;;;;;4.09;77.0293;960.8953;;;;
2019/12/19 04:53:13;;;;;;;20.2;8.4;;;;;;;4.16;76.63574;960.9512;;;;
2019/12/19 04:55:38;;;;;;;16.3;7.6;;;;;;;4.21;76.40332;960.9233;;;;
2019/12/19 04:58:05;;;;;;;15.5;6.6;;;;;;;4.05;76.84766;960.9166;;;;
2019/12/19 05:00:28;;;;;;;13.8;6.4;;;;;;;3.95;76.4248;960.9396;;;;
2019/12/19 05:02:54;;;;;;;14.8;6.5;;;;;;;3.87;76.43359;960.9058;;;;
2019/12/19 05:05:19;;;;;;;16.1;6.9;;;;;;;3.98;76.8584;960.9969;;;;
2019/12/19 05:07:44;;;;;;;15.1;6.7;;;;;;;3.86;76.18945;961.0391;;;;
2019/12/19 05:10:09;;;;;;;13.6;6.7;;;;;;;3.86;76.02832;960.9537;;;;
2019/12/19 05:12:34;;;;;;;11.7;6.3;;;;;;;3.84;75.89844;960.9055;;;;
2019/12/19 05:15:00;;;;;;;13.3;6.4;;;;;;;3.81;75.82422;960.8883;;;;
2019/12/19 05:17:25;;;;;;;12.1;6.1;;;;;;;3.78;76.05078;960.8193;;;;
2019/12/19 05:19:50;;;;;;;14.2;6.6;;;;;;;3.79;75.90039;960.7813;;;;
2019/12/19 05:24:30;;;;;;;15.3;6.8;;;;;;;3.8;76.01758;960.8567;;;;
2019/12/19 05:26:55;;;;;;;13.3;7.2;;;;;;;3.87;75.73145;960.8879;;;;
2019/12/19 05:29:20;;;;;;;16.2;7.6;;;;;;;3.76;76.21875;960.9451;;;;
2019/12/19 05:31:45;;;;;;;15;7.6;;;;;;;3.76;76.63379;960.9764;;;;
2019/12/19 05:34:32;;;;;;;16.4;8.9;;;;;;;3.8;77.37988;961.0262;;;;
2019/12/19 05:36:35;;;;;;;21.1;13.3;;;;;;;3.73;78.00195;960.9874;;;;
2019/12/19 05:39:01;;;;;;;20;12.4;;;;;;;3.7;77.76465;960.9391;;;;
2019/12/19 05:41:26;;;;;;;17.8;9.7;;;;;;;3.71;77.09766;960.923;;;;
2019/12/19 05:43:51;;;;;;;18;9.9;;;;;;;3.82;76.68945;960.9426;;;;
2019/12/19 05:46:16;;;;;;;23.3;12.7;;;;;;;3.76;77.56836;960.9356;;;;
2019/12/19 05:48:41;;;;;;;19.7;12.1;;;;;;;3.8;77.19434;960.9443;;;;
2019/12/19 05:53:45;;;;;;;20.3;10.3;;;;;;;3.86;77.21875;961.334;;;;
2019/12/19 05:55:56;;;;;;;17.8;9.1;;;;;;;3.83;77.53516;961.3265;;;;
2019/12/19 05:58:21;;;;;;;17.3;8;;;;;;;3.8;77.61133;961.4043;;;;
2019/12/19 06:00:46;;;;;;;16.6;7.7;;;;;;;3.79;77.6543;961.4218;;;;
2019/12/19 06:03:12;;;;;;;18.5;8.9;;;;;;;3.72;77.89453;961.3273;;;;
2019/12/19 06:05:37;;;;;;;14.8;7.9;;;;;;;3.71;77.74316;961.2924;;;;
2019/12/19 06:08:02;;;;;;;15.3;8.2;;;;;;;3.7;77.48828;961.3099;;;;
2019/12/19 06:10:27;;;;;;;16.3;8.1;;;;;;;3.73;77.45801;961.291;;;;
2019/12/19 06:12:52;;;;;;;14.7;7.9;;;;;;;3.64;77.71875;961.3323;;;;
2019/12/19 06:15:17;;;;;;;14.5;7.5;;;;;;;3.67;77.7832;961.3477;;;;
2019/12/19 06:17:42;;;;;;;19.3;9.2;;;;;;;3.64;77.94922;961.4681;;;;
2019/12/19 06:20:07;;;;;;;16.1;7.7;;;;;;;3.59;78.27637;961.3823;;;;
2019/12/19 06:22:45;;;;;;;14.4;8.3;;;;;;;3.62;78.28125;961.2864;;;;
2019/12/19 06:24:57;;;;;;;13.8;7.9;;;;;;;3.67;78.53125;961.1387;;;;
2019/12/19 06:27:22;;;;;;;15.5;8;;;;;;;3.66;77.88477;961.1537;;;;
2019/12/19 06:29:47;;;;;;;18;8.1;;;;;;;3.61;77.7832;961.2338;;;;
2019/12/19 06:32:32;;;;;;;14.1;7.8;;;;;;;3.74;77.18457;961.2056;;;;
2019/12/19 06:34:39;;;;;;;16.1;9;;;;;;;3.69;77.53223;961.0784;;;;
2019/12/19 06:37:03;;;;;;;15;8;;;;;;;3.75;77.64551;961.0598;;;;
2019/12/19 06:39:28;;;;;;;15.7;7.6;;;;;;;3.69;77.85547;960.9649;;;;
2019/12/19 06:41:53;;;;;;;15.3;8;;;;;;;3.74;77.4502;960.9763;;;;
2019/12/19 06:44:18;;;;;;;16.8;8.1;;;;;;;3.71;77.40918;960.9704;;;;
2019/12/19 06:46:44;;;;;;;17.8;7.7;;;;;;;3.83;78.10059;960.9889;;;;
2019/12/19 06:49:09;;;;;;;17.5;7.4;;;;;;;3.9;77.61523;960.8925;;;;
2019/12/19 06:51:34;;;;;;;13;7.2;;;;;;;4.12;82.19336;960.9642;;;;
2019/12/19 06:53:59;;;;;;;12.4;7.2;;;;;;;4.25;77.96973;960.9963;;;;
2019/12/19 06:56:24;;;;;;;15.7;7.4;;;;;;;4.09;76.69238;960.9398;;;;
2019/12/19 06:58:49;;;;;;;11.5;7.5;;;;;;;4.12;76.3623;960.8837;;;;
2019/12/19 07:01:15;;;;;;;20.6;10.5;;;;;;;3.96;76.50879;961.0389;;;;
2019/12/19 07:03:40;;;;;;;22.6;12.5;;;;;;;3.92;77.04492;961.0284;;;;
2019/12/19 07:06:05;;;;;;;32.3;19;;;;;;;4.05;76.83789;960.9936;;;;
2019/12/19 07:08:30;;;;;;;25.5;14.6;;;;;;;4.19;76.18066;960.925;;;;
2019/12/19 07:10:55;;;;;;;31;16.8;;;;;;;4.28;76.05762;960.7648;;;;
2019/12/19 07:13:20;;;;;;;36.9;22.9;;;;;;;4.14;76.55371;960.7034;;;;
2019/12/19 07:15:45;;;;;;;36.4;22.3;;;;;;;4.1;76.60156;960.6771;;;;
2019/12/19 07:18:10;;;;;;;51.2;28.8;;;;;;;3.77;78.12402;960.6584;;;;
2019/12/19 07:20:36;;;;;;;40.9;26.7;;;;;;;3.91;78.06738;960.6581;;;;
2019/12/19 07:23:01;;;;;;;28.1;18.8;;;;;;;4.13;77.54297;960.6298;;;;
2019/12/19 07:25:26;;;;;;;39.2;22.8;;;;;;;4.24;77.18164;960.6514;;;;
2019/12/19 07:27:51;;;;;;;34.8;21.2;;;;;;;4.39;76.57422;960.6526;;;;
2019/12/19 07:30:16;;;;;;;35.8;21.9;;;;;;;4.4;76.44727;960.6783;;;;
2019/12/19 07:32:42;;;;;;;35.6;22.3;;;;;;;4.48;76.09375;960.7106;;;;
2019/12/19 07:35:07;;;;;;;31.2;21.3;;;;;;;4.52;76.22656;960.5898;;;;
2019/12/19 07:37:32;;;;;;;36.3;20.7;;;;;;;4.52;76.1709;960.5912;;;;
2019/12/19 07:39:57;;;;;;;30.8;17.5;;;;;;;4.55;76.33691;960.5352;;;;
2019/12/19 07:42:22;;;;;;;27.6;16.8;;;;;;;4.58;76.44629;960.4589;;;;
2019/12/19 07:44:47;;;;;;;30.1;15.8;;;;;;;4.53;76.48438;960.4706;;;;
2019/12/19 07:47:12;;;;;;;24.3;14.2;;;;;;;4.59;76.56445;960.4316;;;;
2019/12/19 07:49:37;;;;;;;22.4;13.2;;;;;;;4.74;75.9668;960.4094;;;;
2019/12/19 07:52:03;;;;;;;24.4;13;;;;;;;4.77;75.98242;960.4509;;;;
2019/12/19 07:54:28;;;;;;;22.4;12.7;;;;;;;4.91;75.59082;960.4389;;;;
2019/12/19 07:56:53;;;;;;;20.2;11.4;;;;;;;4.8;76.23145;960.3704;;;;
2019/12/19 07:59:18;;;;;;;19.2;10.5;;;;;;;4.95;75.74902;960.2946;;;;
2019/12/19 08:01:43;;;;;;;18.2;10.5;;;;;;;5.04;75.39551;960.3;;;;
2019/12/19 08:04:46;;;;;;;15.6;9.4;;;;;;;5.03;75.7627;960.3909;;;;
2019/12/19 08:06:33;;;;;;;17.4;9.4;;;;;;;4.85;76.47168;960.4164;;;;
2019/12/19 08:08:58;;;;;;;20.2;10.6;;;;;;;4.84;76.64258;960.432;;;;
2019/12/19 08:11:24;;;;;;;24.6;12.6;;;;;;;4.99;76.20801;960.4758;;;;
2019/12/19 08:13:49;;;;;;;24.5;13.4;;;;;;;4.92;76.42676;960.4612;;;;
2019/12/19 08:16:14;;;;;;;27.1;12.7;;;;;;;4.88;77.03223;960.4288;;;;
2019/12/19 08:18:39;;;;;;;23.3;12.5;;;;;;;5.04;76.78223;960.4099;;;;
2019/12/19 08:21:04;;;;;;;30.3;13.6;;;;;;;5.17;76.64453;960.423;;;;
2019/12/19 08:23:29;;;;;;;29.4;12.6;;;;;;;5.36;76.01758;960.4525;;;;
2019/12/19 08:25:54;;;;;;;29.4;13.4;;;;;;;5.24;76.60059;960.4692;;;;
2019/12/19 08:28:19;;;;;;;29.5;14.1;;;;;;;5.39;76.28809;960.48;;;;
2019/12/19 08:30:44;;;;;;;28.9;13.2;;;;;;;5.54;75.3457;960.4497;;;;
2019/12/19 08:33:10;;;;;;;25;12.3;;;;;;;5.58;74.71289;960.4414;;;;
2019/12/19 08:35:35;;;;;;;22.2;11.9;;;;;;;5.56;74.24609;960.4988;;;;
2019/12/19 08:38:00;;;;;;;30.6;13.8;;;;;;;5.7;73.7959;960.5928;;;;
2019/12/19 08:40:25;;;;;;;27.3;13.1;;;;;;;5.83;73.98047;960.6229;;;;
2019/12/19 08:42:50;;;;;;;28.9;15.6;;;;;;;5.99;74.59961;960.6065;;;;
2019/12/19 08:45:16;;;;;;;22.8;12.4;;;;;;;6.29;72.51758;960.4517;;;;
2019/12/19 08:47:41;;;;;;;24.8;11.3;;;;;;;6.3;72.15918;960.5013;;;;
2019/12/19 08:50:06;;;;;;;22;11.8;;;;;;;6.45;71.8252;960.4885;;;;
2019/12/19 08:52:31;;;;;;;21.3;12.4;;;;;;;6.72;70.99902;960.4476;;;;
2019/12/19 08:55:06;;;;;;;22.4;11.8;;;;;;;6.8;70.89453;960.3858;;;;
2019/12/19 08:57:26;;;;;;;20.1;11.3;;;;;;;6.88;70.85156;960.4461;;;;
2019/12/19 08:59:47;;;;;;;21.8;11.4;;;;;;;7.1;69.98047;960.433;;;;
2019/12/19 09:02:19;;;;;;;25.8;11.5;;;;;;;6.95;70.68848;960.3574;;;;
2019/12/19 09:04:37;;;;;;;18.5;9.8;;;;;;;6.71;72.25098;960.4114;;;;
2019/12/19 09:07:02;;;;;;;18.5;10.3;;;;;;;6.95;72.11816;960.4292;;;;
2019/12/19 09:09:27;;;;;;;22.9;11.4;;;;;;;6.53;73.17383;960.3865;;;;
2019/12/19 09:11:52;;;;;;;19.9;10.8;;;;;;;6.49;73.73438;960.3417;;;;
2019/12/19 09:14:18;;;;;;;16.7;10.3;;;;;;;6.67;73.20898;960.3488;;;;
2019/12/19 09:16:43;;;;;;;17.7;11.2;;;;;;;6.71;72.85547;960.337;;;;
2019/12/19 09:19:08;;;;;;;19.2;10.5;;;;;;;6.82;72.72168;960.259;;;;
2019/12/19 09:21:33;;;;;;;18.4;10.8;;;;;;;7.03;72.20117;960.2658;;;;
2019/12/19 09:23:58;;;;;;;21.7;10.7;;;;;;;7.15;71.5459;960.192;;;;
2019/12/19 09:26:23;;;;;;;21.4;10.8;;;;;;;7.23;71.48926;960.0176;;;;
2019/12/19 09:28:48;;;;;;;18;10.6;;;;;;;7.22;71.53613;960.0081;;;;
2019/12/19 09:31:13;;;;;;;21.5;11;;;;;;;7.32;71.21289;959.9445;;;;
2019/12/19 09:33:39;;;;;;;20.9;10.9;;;;;;;7.39;71.0752;959.9103;;;;
2019/12/19 09:36:04;;;;;;;15.9;10.4;;;;;;;7.61;70.33203;959.9202;;;;
2019/12/19 09:38:29;;;;;;;21.9;11.1;;;;;;;7.72;70.02344;959.84;;;;
2019/12/19 09:40:54;;;;;;;22.6;11.3;;;;;;;7.89;69.31641;959.7845;;;;
2019/12/19 09:43:19;;;;;;;18.8;10.4;;;;;;;7.71;70.40625;959.7239;;;;
2019/12/19 09:45:44;;;;;;;19.8;10.7;;;;;;;7.82;70.21484;959.6765;;;;
2019/12/19 09:48:09;;;;;;;19.5;10.8;;;;;;;7.96;69.89844;959.6685;;;;
2019/12/19 09:50:34;;;;;;;16.8;10.9;;;;;;;7.94;70.20996;959.6945;;;;
2019/12/19 09:52:59;;;;;;;16.3;11.5;;;;;;;7.86;71.0127;959.6445;;;;
2019/12/19 09:55:25;;;;;;;19.1;12.9;;;;;;;7.8;70.85059;959.5818;;;;
2019/12/19 09:57:50;;;;;;;18.6;12.3;;;;;;;7.69;71.53223;959.6133;;;;
2019/12/19 10:00:15;;;;;;;18.1;12.3;;;;;;;7.68;71.84375;959.5218;;;;
2019/12/19 10:02:40;;;;;;;16.7;12;;;;;;;7.94;71.23535;959.4651;;;;
2019/12/19 10:05:05;;;;;;;19.7;12.4;;;;;;;8.12;70.82324;959.4104;;;;
2019/12/19 10:07:35;;;;;;;21.8;13.9;;;;;;;8.14;70.5918;959.3989;;;;
2019/12/19 10:10:02;;;;;;;20.8;13.6;;;;;;;7.77;72.25586;959.3494;;;;
2019/12/19 10:14:46;;;;;;;19.6;12.9;;;;;;;7.94;71.48047;959.2402;;;;
2019/12/19 10:17:11;;;;;;;18.1;12.7;;;;;;;8.08;71.46875;959.198;;;;
2019/12/19 10:19:36;;;;;;;21.6;12.9;;;;;;;8.29;71.1543;959.1564;;;;
2019/12/19 10:22:01;;;;;;;18.6;12.7;;;;;;;8.3;70.51367;959.1658;;;;
2019/12/19 10:24:27;;;;;;;20.2;12.3;;;;;;;8.28;70.91895;959.1556;;;;
2019/12/19 10:26:52;;;;;;;22.4;12.2;;;;;;;8.5;70.30176;959.1308;;;;
2019/12/19 10:29:17;;;;;;;18.1;11.6;;;;;;;8.48;70.32227;959.1598;;;;
2019/12/19 10:31:46;;;;;;;18.2;12;;;;;;;8.47;70.23828;959.0932;;;;
2019/12/19 10:34:07;;;;;;;19.9;11.8;;;;;;;8.44;71.14355;958.9902;;;;
2019/12/19 10:36:32;;;;;;;22.8;14.3;;;;;;;8.46;71.55469;958.9517;;;;
2019/12/19 10:38:57;;;;;;;25.7;13.8;;;;;;;8.38;72.18262;958.9548;;;;
2019/12/19 10:41:23;;;;;;;17.5;11.1;;;;;;;8.34;71.56934;959.0028;;;;
2019/12/19 10:43:48;;;;;;;18.6;11.7;;;;;;;8.31;72.19434;959.0066;;;;
2019/12/19 10:46:13;;;;;;;15.8;10.4;;;;;;;8.22;72.16797;958.9706;;;;
2019/12/19 10:48:38;;;;;;;16.3;10.7;;;;;;;8.21;72.53906;958.9511;;;;
2019/12/19 10:51:03;;;;;;;16;10.6;;;;;;;8.32;72.37109;958.9537;;;;
2019/12/19 10:53:28;;;;;;;15.2;10.4;;;;;;;8.43;72.17969;958.957;;;;
2019/12/19 10:55:53;;;;;;;16.5;10.6;;;;;;;8.54;72.25586;959.0069;;;;
2019/12/19 10:58:18;;;;;;;17.4;10.5;;;;;;;8.45;71.99609;959.0266;;;;
2019/12/19 11:00:43;;;;;;;15;10.2;;;;;;;8.61;71.53418;959.014;;;;
2019/12/19 11:03:08;;;;;;;15;9.7;;;;;;;8.64;71.6084;958.9825;;;;
2019/12/19 11:05:34;;;;;;;21.3;10.1;;;;;;;8.73;71.44824;958.949;;;;
2019/12/19 11:10:28;;;;;;;22.6;11.5;;;;;;;8.69;71.98926;958.8301;;;;
2019/12/19 11:12:49;;;;;;;19;10.9;;;;;;;8.71;72.27441;958.7761;;;;
2019/12/19 11:15:14;;;;;;;18.8;11.2;;;;;;;8.75;72.47852;958.728;;;;
2019/12/19 11:17:40;;;;;;;15.7;10.2;;;;;;;8.77;70.91699;958.6786;;;;
2019/12/19 11:20:05;;;;;;;18.1;9.8;;;;;;;8.95;70.98242;958.6356;;;;
2019/12/19 11:22:30;;;;;;;15.4;10;;;;;;;9.05;70.6377;958.4938;;;;
2019/12/19 11:25:58;;;;;;;21.5;10.5;;;;;;;9.12;70.9873;958.4367;;;;
2019/12/19 11:28:23;;;;;;;17.2;10.3;;;;;;;9.19;70.57813;958.5098;;;;
2019/12/19 11:30:49;;;;;;;15.6;10;;;;;;;9.17;70.81055;958.4386;;;;
2019/12/19 11:33:24;;;;;;;15.9;9.7;;;;;;;9.15;70.31543;958.3923;;;;
2019/12/19 11:35:39;;;;;;;16.8;9.7;;;;;;;9.3;69.78906;958.3301;;;;
2019/12/19 11:38:04;;;;;;;15.3;9.5;;;;;;;9.34;69.30469;958.2089;;;;
2019/12/19 11:40:29;;;;;;;14.7;9.1;;;;;;;9.48;68.83691;958.1857;;;;
2019/12/19 11:42:54;;;;;;;13.7;9.4;;;;;;;9.47;69.30273;958.1448;;;;
2019/12/19 11:45:19;;;;;;;14.7;9.5;;;;;;;9.62;68.63672;958.0715;;;;
2019/12/19 11:47:44;;;;;;;18;10.1;;;;;;;9.72;69.5293;957.991;;;;
2019/12/19 11:50:09;;;;;;;18.3;10.6;;;;;;;9.62;70.13379;957.9497;;;;
2019/12/19 11:52:34;;;;;;;15.8;10.5;;;;;;;9.67;69.44238;957.9622;;;;
2019/12/19 11:54:59;;;;;;;19.6;10.5;;;;;;;9.75;69.74609;957.9055;;;;
2019/12/19 11:57:24;;;;;;;19.9;9.7;;;;;;;10.02;68.48926;957.9264;;;;
2019/12/19 11:59:49;;;;;;;17.3;10.2;;;;;;;10.23;67.51563;957.8728;;;;
2019/12/19 12:02:14;;;;;;;15.2;9.8;;;;;;;10.44;67.25684;957.7967;;;;
2019/12/19 12:04:40;;;;;;;20.2;10.3;;;;;;;10.58;67.62891;957.723;;;;
2019/12/19 12:07:05;;;;;;;20.8;11.1;;;;;;;10.74;66.36523;957.7452;;;;
2019/12/19 12:09:30;;;;;;;20.2;12.1;;;;;;;10.9;66.00098;957.6765;;;;
2019/12/19 12:11:55;;;;;;;22.5;12;;;;;;;11.02;65.66797;957.5598;;;;
2019/12/19 12:14:20;;;;;;;20.3;11.2;;;;;;;11.09;64.70508;957.4486;;;;
2019/12/19 12:16:47;;;;;;;15.3;10;;;;;;;11.18;64.54297;957.3063;;;;
2019/12/19 12:19:10;;;;;;;15;10.5;;;;;;;11.22;64.27832;957.3491;;;;
2019/12/19 12:21:35;;;;;;;15.4;10.6;;;;;;;11.28;64.2998;957.385;;;;
2019/12/19 12:24:55;;;;;;;15;10.5;;;;;;;11.29;64.53516;957.4214;;;;
2019/12/19 12:28:53;;;;;;;16.8;10.4;;;;;;;11.39;64.10352;957.3642;;;;
2019/12/19 12:31:18;;;;;;;18;9.6;;;;;;;11.44;64.12305;957.3606;;;;
2019/12/19 12:33:41;;;;;;;17.8;10.2;;;;;;;11.31;64.26758;957.2816;;;;
2019/12/19 12:36:06;;;;;;;17.5;9.8;;;;;;;11.13;64.89941;957.2029;;;;
2019/12/19 12:38:31;;;;;;;13.4;9.3;;;;;;;11.09;65.4209;957.162;;;;
2019/12/19 12:40:56;;;;;;;15.7;9;;;;;;;11.05;65.53223;957.0919;;;;
2019/12/19 12:43:21;;;;;;;15.7;9.2;;;;;;;10.8;66.38672;956.9562;;;;
2019/12/19 12:45:46;;;;;;;15.3;9.6;;;;;;;10.81;66.57422;956.9786;;;;
2019/12/19 12:48:11;;;;;;;17.6;10.4;;;;;;;10.71;67.52051;956.9542;;;;
2019/12/19 12:50:36;;;;;;;16.9;10.2;;;;;;;10.69;67.75293;956.9169;;;;
2019/12/19 12:53:01;;;;;;;17.6;10.6;;;;;;;10.68;67.84473;956.8599;;;;
2019/12/19 12:55:26;;;;;;;16.8;11.1;;;;;;;10.66;68.22754;956.8323;;;;
2019/12/19 12:57:51;;;;;;;15.5;11.9;;;;;;;10.63;69.1377;956.9059;;;;
2019/12/19 13:00:16;;;;;;;19.6;11.7;;;;;;;10.61;69.06445;956.8956;;;;
2019/12/19 13:02:41;;;;;;;19.7;12;;;;;;;10.65;68.88281;956.873;;;;
2019/12/19 13:05:06;;;;;;;21.7;12.4;;;;;;;10.6;69.22559;956.9142;;;;
2019/12/19 13:07:32;;;;;;;17.9;11.8;;;;;;;10.69;68.93652;956.9038;;;;
2019/12/19 13:09:57;;;;;;;18.4;11.8;;;;;;;10.94;68.2373;956.9172;;;;
2019/12/19 13:12:22;;;;;;;16.5;11.4;;;;;;;11.2;67.26758;956.8933;;;;
2019/12/19 13:14:47;;;;;;;17.6;11.8;;;;;;;11.31;66.60449;956.8689;;;;
2019/12/19 13:17:12;;;;;;;20.1;11.5;;;;;;;11.4;66.7002;956.853;;;;
2019/12/19 13:19:37;;;;;;;17.7;11.5;;;;;;;11.58;66.12793;956.8158;;;;
2019/12/19 13:22:02;;;;;;;17.5;11.2;;;;;;;11.79;65.29199;956.6994;;;;
2019/12/19 13:24:27;;;;;;;18.4;11.9;;;;;;;11.7;64.43164;956.68;;;;
2019/12/19 13:26:52;;;;;;;18.1;11;;;;;;;11.72;64.66992;956.6775;;;;
2019/12/19 13:29:17;;;;;;;18;11.2;;;;;;;11.88;64.57617;956.7656;;;;
2019/12/19 13:31:43;;;;;;;16.6;11;;;;;;;11.81;64.17773;956.6615;;;;
2019/12/19 13:34:08;;;;;;;16.8;11.3;;;;;;;11.85;63.95996;956.6586;;;;
2019/12/19 13:36:33;;;;;;;15.8;11.2;;;;;;;11.95;63.86914;956.6401;;;;
2019/12/19 13:38:58;;;;;;;15.5;10.8;;;;;;;12.07;63.69922;956.6166;;;;
2019/12/19 13:41:23;;;;;;;16.3;11;;;;;;;12.05;63.41309;956.5179;;;;
2019/12/19 13:43:48;;;;;;;15.3;10.7;;;;;;;12.01;63.77246;956.4893;;;;
2019/12/19 13:46:13;;;;;;;19.4;11.3;;;;;;;11.99;63.83887;956.5808;;;;
2019/12/19 13:48:39;;;;;;;20.7;12;;;;;;;12.02;64.15039;956.5886;;;;
2019/12/19 13:51:04;;;;;;;18.2;11.6;;;;;;;12.06;63.99121;956.6248;;;;
2019/12/19 13:53:29;;;;;;;15.6;10.8;;;;;;;12.06;63.84961;956.5319;;;;
2019/12/19 13:55:54;;;;;;;16.4;11.3;;;;;;;12.03;64.33984;956.554;;;;
2019/12/19 13:58:19;;;;;;;18.4;12.3;;;;;;;11.94;63.99707;956.6007;;;;
2019/12/19 14:00:44;;;;;;;16.9;11.6;;;;;;;12.08;64.14648;956.6961;;;;
2019/12/19 14:03:09;;;;;;;18.1;11.2;;;;;;;11.91;64.35645;956.7776;;;;
2019/12/19 14:05:34;;;;;;;18.3;11.3;;;;;;;11.92;64.24219;956.7084;;;;
2019/12/19 14:08:00;;;;;;;20.2;11.3;;;;;;;11.93;64.15918;956.6439;;;;
2019/12/19 14:10:25;;;;;;;20.4;11.4;;;;;;;11.97;64.09375;956.6683;;;;
2019/12/19 14:12:50;;;;;;;19.1;11.5;;;;;;;11.87;64.16309;956.6213;;;;
2019/12/19 14:15:15;;;;;;;18.7;11.6;;;;;;;11.84;64.08887;956.6133;;;;
2019/12/19 14:17:40;;;;;;;17;10.7;;;;;;;11.87;64.02246;956.5782;;;;
2019/12/19 14:20:05;;;;;;;16.2;10.5;;;;;;;11.72;63.57617;956.492;;;;
2019/12/19 14:22:30;;;;;;;14;11.1;;;;;;;11.42;64.36719;956.4984;;;;